createdAt,value
2023-01-29T00:03:25.916Z,1019.2
2023-01-29T00:08:33.768Z,1019.2
2023-01-29T00:13:40.126Z,1019.1
2023-01-29T00:18:46.516Z,1019.1
2023-01-29T00:23:54.561Z,1019
2023-01-29T00:29:02.415Z,1018.9
2023-01-29T00:34:10.381Z,1019
2023-01-29T00:39:18.322Z,1018.9
2023-01-29T00:44:26.356Z,1018.9
2023-01-29T00:49:34.271Z,1018.9
2023-01-29T00:54:42.223Z,1018.9
2023-01-29T00:59:50.144Z,1018.9
2023-01-29T01:04:58.136Z,1018.9
2023-01-29T01:10:06.071Z,1018.8
2023-01-29T01:15:14.098Z,1018.8
2023-01-29T01:20:22.036Z,1018.9
2023-01-29T01:25:29.948Z,1018.9
2023-01-29T01:30:37.975Z,1019
2023-01-29T01:35:45.893Z,1018.9
2023-01-29T01:40:54.129Z,1018.9
2023-01-29T01:46:01.854Z,1018.8
2023-01-29T01:51:09.780Z,1018.5
2023-01-29T01:56:17.718Z,1018.4
2023-01-29T02:01:25.931Z,1018.6
2023-01-29T02:06:33.646Z,1018.6
2023-01-29T02:11:41.578Z,1018.6
2023-01-29T02:16:49.562Z,1018.7
2023-01-29T02:21:57.553Z,1018.7
2023-01-29T02:27:05.512Z,1018.7
2023-01-29T02:32:13.443Z,1018.7
2023-01-29T02:37:21.420Z,1018.7
2023-01-29T02:42:29.340Z,1018.8
2023-01-29T02:47:37.305Z,1019
2023-01-29T02:52:45.303Z,1019
2023-01-29T02:57:53.219Z,1019.1
2023-01-29T03:03:01.174Z,1019.1
2023-01-29T03:08:09.166Z,1018.9
2023-01-29T03:13:17.119Z,1018.9
2023-01-29T03:18:25.056Z,1018.8
2023-01-29T03:23:33.050Z,1018.7
2023-01-29T03:28:40.983Z,1018.7
2023-01-29T03:33:47.346Z,1018.8
2023-01-29T03:38:53.715Z,1018.8
2023-01-29T03:44:00.063Z,1018.8
2023-01-29T03:49:06.401Z,1019
2023-01-29T03:54:12.777Z,1018.9
2023-01-29T03:59:19.130Z,1018.9
2023-01-29T04:04:25.571Z,1018.8
2023-01-29T04:09:33.407Z,1018.8
2023-01-29T04:14:41.403Z,1018.7
2023-01-29T04:19:49.348Z,1018.7
2023-01-29T04:24:57.325Z,1018.5
2023-01-29T04:30:05.262Z,1018.5
2023-01-29T04:35:13.250Z,1018.5
2023-01-29T04:40:21.202Z,1018.4
2023-01-29T04:45:29.139Z,1018.4
2023-01-29T04:50:37.106Z,1018.4
2023-01-29T04:55:45.088Z,1018.3
2023-01-29T05:00:53.035Z,1018.1
2023-01-29T05:06:01.012Z,1018.2
2023-01-29T05:11:08.954Z,1018.2
2023-01-29T05:16:16.997Z,1018.2
2023-01-29T05:21:24.855Z,1018.2
2023-01-29T05:26:32.804Z,1018.1
2023-01-29T05:31:40.825Z,1018
2023-01-29T05:36:48.736Z,1018
2023-01-29T05:41:56.695Z,1018
2023-01-29T05:47:04.663Z,1018.1
2023-01-29T05:52:12.618Z,1018
2023-01-29T05:57:20.584Z,1018
2023-01-29T06:02:28.558Z,1018.1
2023-01-29T06:07:36.514Z,1018.2
2023-01-29T06:12:44.471Z,1018.2
2023-01-29T06:17:52.464Z,1018.3
2023-01-29T06:23:00.387Z,1018.3
2023-01-29T06:28:08.350Z,1018.4
2023-01-29T06:33:16.321Z,1018.5
2023-01-29T06:38:24.284Z,1018.6
2023-01-29T06:43:32.234Z,1018.6
2023-01-29T06:48:40.182Z,1018.7
2023-01-29T06:53:48.149Z,1018.7
2023-01-29T06:58:56.107Z,1018.5
2023-01-29T07:04:04.142Z,1018.6
2023-01-29T07:09:12.036Z,1018.5
2023-01-29T07:14:19.994Z,1018.6
2023-01-29T07:19:27.946Z,1018.5
2023-01-29T07:24:35.898Z,1018.5
2023-01-29T07:29:43.872Z,1018.6
2023-01-29T07:34:51.825Z,1018.5
2023-01-29T07:39:59.792Z,1018.6
2023-01-29T07:45:07.746Z,1018.5
2023-01-29T07:50:14.313Z,1018.4
2023-01-29T07:55:20.463Z,1018.3
2023-01-29T08:00:26.820Z,1018.5
2023-01-29T08:05:33.176Z,1018.4
2023-01-29T08:10:39.603Z,1018.4
2023-01-29T08:15:47.515Z,1018.4
2023-01-29T08:20:55.459Z,1018.5
2023-01-29T08:26:03.581Z,1018.5
2023-01-29T08:31:11.473Z,1018.5
2023-01-29T08:36:19.338Z,1018.4
2023-01-29T08:41:27.306Z,1018.3
2023-01-29T08:46:35.267Z,1018.1
2023-01-29T08:51:43.235Z,1018.3
2023-01-29T08:56:51.159Z,1018.3
2023-01-29T09:01:59.137Z,1018.3
2023-01-29T09:07:07.087Z,1018.3
2023-01-29T09:12:15.054Z,1018.1
2023-01-29T09:17:23.024Z,1018.1
2023-01-29T09:22:30.979Z,1018.2
2023-01-29T09:27:39.072Z,1018.2
2023-01-29T09:32:53.705Z,1018
2023-01-29T09:37:54.925Z,1018
2023-01-29T09:43:02.823Z,1017.9
2023-01-29T09:48:10.784Z,1017.9
2023-01-29T09:53:18.727Z,1017.9
2023-01-29T09:58:26.681Z,1017.8
2023-01-29T10:03:34.690Z,1017.8
2023-01-29T10:08:42.610Z,1017.8
2023-01-29T10:13:50.613Z,1017.8
2023-01-29T10:18:58.535Z,1017.7
2023-01-29T10:24:06.508Z,1017.8
2023-01-29T10:29:14.440Z,1017.8
2023-01-29T10:34:22.400Z,1017.8
2023-01-29T10:39:30.506Z,1017.7
2023-01-29T10:44:38.343Z,1017.7
2023-01-29T10:49:46.287Z,1017.5
2023-01-29T10:54:54.259Z,1017.4
2023-01-29T11:00:02.224Z,1017.3
2023-01-29T11:05:10.300Z,1017.1
2023-01-29T11:10:18.483Z,1017
2023-01-29T11:15:26.083Z,1017
2023-01-29T11:20:34.029Z,1017.1
2023-01-29T11:25:42.079Z,1016.9
2023-01-29T11:30:50.063Z,1016.9
2023-01-29T11:35:57.925Z,1016.9
2023-01-29T11:41:05.899Z,1016.9
2023-01-29T11:46:13.890Z,1016.8
2023-01-29T11:51:21.796Z,1016.7
2023-01-29T11:56:29.737Z,1016.6
2023-01-29T12:01:37.740Z,1016.6
2023-01-29T12:06:45.678Z,1016.5
2023-01-29T12:11:52.020Z,1016.4
2023-01-29T12:16:59.986Z,1016.4
2023-01-29T12:22:06.343Z,1016.1
2023-01-29T12:32:22.268Z,1015.8
2023-01-29T12:37:30.223Z,1015.5
2023-01-29T12:42:38.193Z,1015.3
2023-01-29T12:47:46.123Z,1015.2
2023-01-29T12:52:54.096Z,1015.2
2023-01-29T12:58:02.046Z,1015
2023-01-29T13:03:10.003Z,1014.9
2023-01-29T13:08:17.989Z,1014.8
2023-01-29T13:13:25.937Z,1014.7
2023-01-29T13:18:33.902Z,1014.6
2023-01-29T13:23:41.873Z,1014.6
2023-01-29T13:28:49.821Z,1014.6
2023-01-29T13:33:57.769Z,1014.5
2023-01-29T13:39:05.787Z,1014.5
2023-01-29T13:44:13.684Z,1014.6
2023-01-29T13:49:21.685Z,1014.5
2023-01-29T13:54:29.615Z,1014.6
2023-01-29T13:59:37.581Z,1014.6
2023-01-29T14:04:45.530Z,1014.7
2023-01-29T14:09:53.495Z,1014.7
2023-01-29T14:15:01.465Z,1014.6
2023-01-29T14:20:09.387Z,1014.6
2023-01-29T14:25:17.801Z,1014.6
2023-01-29T14:30:25.399Z,1014.5
2023-01-29T14:35:33.303Z,1014.5
2023-01-29T14:45:49.285Z,1014.5
2023-01-29T14:50:57.169Z,1014.5
2023-01-29T14:56:05.122Z,1014.4
2023-01-29T15:01:13.140Z,1014.4
2023-01-29T15:06:21.042Z,1014.5
2023-01-29T15:11:28.991Z,1014.4
2023-01-29T15:16:36.971Z,1014.4
2023-01-29T15:21:44.908Z,1014.4
2023-01-29T15:26:52.883Z,1014.4
2023-01-29T15:32:00.924Z,1014.3
2023-01-29T15:37:08.798Z,1014.3
2023-01-29T15:42:16.765Z,1014.2
2023-01-29T15:47:24.790Z,1014.1
2023-01-29T15:52:32.679Z,1014.1
2023-01-29T15:57:40.688Z,1014
2023-01-29T16:02:48.675Z,1014
2023-01-29T16:07:56.573Z,1014
2023-01-29T16:13:04.512Z,1014
2023-01-29T16:18:12.501Z,1014
2023-01-29T16:23:20.482Z,1014
2023-01-29T16:28:28.400Z,1013.9
2023-01-29T16:33:36.364Z,1013.9
2023-01-29T16:38:44.338Z,1013.9
2023-01-29T16:43:52.312Z,1013.8
2023-01-29T16:49:00.250Z,1013.7
2023-01-29T16:54:08.188Z,1013.6
2023-01-29T16:59:16.157Z,1013.6
2023-01-29T17:04:24.115Z,1013.6
2023-01-29T17:09:32.081Z,1013.5
2023-01-29T17:14:40.043Z,1013.5
2023-01-29T17:19:47.998Z,1013.4
2023-01-29T17:24:55.975Z,1013.4
2023-01-29T17:30:03.921Z,1013.3
2023-01-29T17:35:11.856Z,1013.2
2023-01-29T17:40:19.842Z,1013.2
2023-01-29T17:45:27.874Z,1013.2
2023-01-29T17:50:35.746Z,1013.2
2023-01-29T17:55:43.704Z,1013.2
2023-01-29T18:00:51.661Z,1013.3
2023-01-29T18:05:59.644Z,1013.3
2023-01-29T18:11:07.587Z,1013.1
2023-01-29T18:16:15.630Z,1013.1
2023-01-29T18:21:23.518Z,1013
2023-01-29T18:26:31.570Z,1013
2023-01-29T18:31:39.449Z,1012.9
2023-01-29T18:36:47.388Z,1012.8
2023-01-29T18:41:55.348Z,1012.6
2023-01-29T18:47:03.321Z,1012.5
2023-01-29T18:52:11.256Z,1012.5
2023-01-29T18:58:26.733Z,1012.5
2023-01-29T19:02:27.244Z,1012.5
2023-01-29T19:07:35.126Z,1012.4
2023-01-29T19:12:43.109Z,1012.3
2023-01-29T19:17:51.053Z,1012.3
2023-01-29T19:22:59.027Z,1012.2
2023-01-29T19:28:06.995Z,1012.2
2023-01-29T19:33:14.943Z,1012.2
2023-01-29T19:38:22.944Z,1012.2
2023-01-29T19:43:30.891Z,1012.2
2023-01-29T19:48:38.823Z,1012.1
2023-01-29T19:53:46.771Z,1011.9
2023-01-29T19:58:54.763Z,1011.7
2023-01-29T20:04:02.705Z,1011.6
2023-01-29T20:09:10.651Z,1011.6
2023-01-29T20:14:18.619Z,1011.5
2023-01-29T20:19:26.572Z,1011.4
2023-01-29T20:24:34.533Z,1011.4
2023-01-29T20:29:42.506Z,1011.2
2023-01-29T20:34:50.471Z,1011
2023-01-29T20:39:58.619Z,1011
2023-01-29T20:45:05.896Z,1010.9
2023-01-29T20:50:13.547Z,1010.8
2023-01-29T20:55:21.131Z,1010.8
2023-01-29T21:00:28.715Z,1010.8
2023-01-29T21:05:36.329Z,1010.8
2023-01-29T21:10:43.934Z,1010.7
2023-01-29T21:15:51.535Z,1010.6
2023-01-29T21:20:59.151Z,1010.6
2023-01-29T21:26:06.755Z,1010.7
2023-01-29T21:31:14.380Z,1010.6
2023-01-29T21:36:23.323Z,1010.6
2023-01-29T21:41:30.915Z,1010.3
2023-01-29T21:46:38.539Z,1010.5
2023-01-29T21:51:46.128Z,1010.5
2023-01-29T21:56:53.725Z,1010.4
2023-01-29T22:02:01.554Z,1010.6
2023-01-29T22:07:10.318Z,1010.6
2023-01-29T22:12:17.919Z,1010.7
2023-01-29T22:17:26.881Z,1010.7
2023-01-29T22:22:34.488Z,1010.6
2023-01-29T22:27:42.119Z,1010.5
2023-01-29T22:32:49.689Z,1010.3
2023-01-29T22:37:57.326Z,1010.5
2023-01-29T22:43:04.929Z,1010.3
2023-01-29T22:48:12.508Z,1010.3
2023-01-29T22:53:20.112Z,1010.2
2023-01-29T22:58:27.738Z,1010.1
2023-01-29T23:03:35.356Z,1009.9
2023-01-29T23:08:44.314Z,1009.7
2023-01-29T23:13:51.931Z,1009.5
2023-01-29T23:18:59.504Z,1009.1
2023-01-29T23:24:07.119Z,1009.1
2023-01-29T23:29:14.738Z,1009.1
2023-01-29T23:34:22.350Z,1009
2023-01-29T23:39:29.926Z,1009.1
2023-01-29T23:44:37.550Z,1009
2023-01-29T23:49:45.160Z,1009
2023-01-29T23:54:52.770Z,1009
